Rawalpindi Weather



Rawalpindi's Current Weather

Temprature 25.69o scattered clouds

scattered clouds

Rain: 0 %

Min Temprature25.69o
Max Temprature25.69o
Humidity75
Wind Speed0.89 m/h
Sun Rise05:58:13
Sun Set18:00:08
Current Time: 26-Sep-2022 09:13:56
Lat/Lon: 33.6007, 73.0679




Rawalpindi's Geo Location



Rawalpindi's Weather Forecast

Time Overall Temp Min Temp Max Temp Humidity Wind Speed Rain
26-Sep-2022 (Mon)
11:00:00 broken clouds 26.420 26.420 27.890 68 1.5 m/h 0 %
14:00:00 few clouds 28.650 28.650 30.130 55 2.28 m/h 0 %
17:00:00 clear sky 29.210 29.210 29.210 53 2.21 m/h 0 %
20:00:00 clear sky 25.820 25.820 25.820 61 1.62 m/h 0 %
23:00:00 clear sky 24.500 24.500 24.500 65 1.65 m/h 0 %
27-Sep-2022 (Tue)
02:00:00 clear sky 23.500 23.500 23.500 68 1.84 m/h 0 %
05:00:00 clear sky 22.930 22.930 22.930 69 2.12 m/h 0 %
08:00:00 clear sky 25.650 25.650 25.650 61 1.6 m/h 0 %
11:00:00 clear sky 29.350 29.350 29.350 50 1.68 m/h 0 %
14:00:00 clear sky 31.330 31.330 31.330 43 1.46 m/h 0 %
17:00:00 clear sky 30.820 30.820 30.820 48 0.36 m/h 0 %
20:00:00 clear sky 26.900 26.900 26.900 56 1.84 m/h 0 %
23:00:00 clear sky 25.410 25.410 25.410 62 2.41 m/h 0 %
28-Sep-2022 (Wed)
02:00:00 clear sky 24.340 24.340 24.340 65 2.64 m/h 0 %
05:00:00 clear sky 23.510 23.510 23.510 67 2.45 m/h 0 %
08:00:00 clear sky 25.870 25.870 25.870 62 2.31 m/h 0 %
11:00:00 clear sky 29.930 29.930 29.930 50 2.08 m/h 0 %
14:00:00 clear sky 31.880 31.880 31.880 42 1.37 m/h 0 %
17:00:00 clear sky 31.120 31.120 31.120 47 0.44 m/h 0 %
20:00:00 clear sky 27.110 27.110 27.110 56 1.89 m/h 0 %
23:00:00 clear sky 25.940 25.940 25.940 59 2.42 m/h 0 %
29-Sep-2022 (Thu)
02:00:00 clear sky 24.680 24.680 24.680 59 2.84 m/h 0 %
05:00:00 light rain 23.250 23.250 23.250 64 0.58 m/h 97 %
08:00:00 light rain 25.180 25.180 25.180 60 2 m/h 143 %
11:00:00 light rain 29.530 29.530 29.530 47 0.68 m/h 19 %
14:00:00 clear sky 31.850 31.850 31.850 40 1.39 m/h 0 %
17:00:00 clear sky 31.170 31.170 31.170 46 0.19 m/h 0 %
20:00:00 clear sky 27.180 27.180 27.180 54 1.82 m/h 0 %
23:00:00 light rain 25.380 25.380 25.380 60 2.22 m/h 16 %
30-Sep-2022 (Fri)
02:00:00 clear sky 24.520 24.520 24.520 58 2.53 m/h 0 %
05:00:00 clear sky 23.740 23.740 23.740 58 0.6 m/h 0 %
08:00:00 few clouds 26.160 26.160 26.160 53 2.23 m/h 0 %
11:00:00 few clouds 30.510 30.510 30.510 43 1.4 m/h 0 %
14:00:00 clear sky 32.640 32.640 32.640 35 1.8 m/h 0 %
17:00:00 clear sky 31.500 31.500 31.500 42 0.69 m/h 0 %
20:00:00 clear sky 27.410 27.410 27.410 49 2.16 m/h 0 %
23:00:00 clear sky 25.970 25.970 25.970 53 2.92 m/h 0 %
01-Oct-2022 (Sat)
02:00:00 clear sky 24.960 24.960 24.960 54 2.51 m/h 0 %
05:00:00 few clouds 24.510 24.510 24.510 55 1.57 m/h 0 %
08:00:00 few clouds 26.600 26.600 26.600 51 2.54 m/h 0 %


Rawalpindi's Tourist Spots

Parks and Zoos in Rawalpindi

Famous Cities (61)